Decoded Metar for LFPO (PARIS ORLY in FRANCE) (IATA:ORY) | Meteo·Mobile Aviation Weather
aviador You're here:

LFPO Decoded Metar

PARIS ORLY in FRANCE
Report Time2019-07-16 11:00:00
UTC Time2019-07-16 11:09:59
Flight Rules vfr VFR
WindVRB at 03 kt
Visibility9999 m
Phenomena:N/A
Clouds:N/A
Expected CloudBase > 4,800 ft AGL from Temp-Dew spread
CeilingNone
Temp22°C (ISA +8)
Dew Point10°C (47% RH)
AAT21.0°C
QNH1019 hPa
Density Alt1,168 ft
Elevation315 ft
Report Wrong Elevation
Raw Report
METAR LFPO 161100Z VRB03KT CAVOK 22/10 Q1019 NOSIG=

Extra information for LFPO:More info

Metar Taf Metar & Taf Last 4 Metars F.Rules Stats Wind Profile Meteogram Temp Stats Airport Information Weather charts Add Link Nearby VenuesMetar ALERT Operation Metar Decoded Social comments